Pink Coral — 9HPY9 — position and weather

sailwx.info

Track history (hours):
 
Tides and Currents Weather Stations Pressure Air Temp Water Temp Dewpoint Dewpoint Depression Visibility Wind Speed Wind Dir Waves Ship Positions

Pink Coral

Last reported at 2018-Jan-22 18:38 UTC. Time now 2018-Jan-24 11:57 UTC.
Position N 44°04' E 037°08'.

Length 183 m; draft 8.6 m.

Type: Tanker. MMSI: 249344000.

Date/timePositionNaut miles runAvg speedWind from/ knotsBaromVisibWave heightAir tempDewpointWater temp
2018-Jan-22 18:38N 44°04' E 037°08'0 1.5
2018-Jan-22 18:31N 44°04' E 037°08'1 1.5
2018-Jan-22 18:00N 44°04' E 037°09'1 1.4
2018-Jan-22 17:30N 44°03' E 037°10'1 1.4
2018-Jan-22 17:00N 44°03' E 037°11'1 1.3
2018-Jan-22 16:17N 44°02' E 037°12'0 1.3
2018-Jan-22 15:56N 44°02' E 037°13'1 1.3
2018-Jan-22 15:31N 44°02' E 037°13'1 1.4
2018-Jan-22 14:36N 44°01' E 037°15'0 1.4
2018-Jan-22 14:30N 44°01' E 037°15'1 1.4
2018-Jan-22 14:01N 44°01' E 037°16'1 1.4
2018-Jan-22 13:30N 44°01' E 037°17'4 1.3
2018-Jan-22 10:41N 43°60' E 037°22'0 1.3
2018-Jan-22 10:31N 43°60' E 037°22'1 1.4
2018-Jan-22 10:00N 43°60' E 037°23'1 1.4
2018-Jan-22 09:30N 43°60' E 037°24'16 0.7
2018-Jan-21 11:49N 44°13' E 037°36'412.0
2018-Jan-21 11:30N 44°16' E 037°39'0 0.5
2018-Jan-21 11:00N 44°16' E 037°40'1 2.4
2018-Jan-21 10:30N 44°15' E 037°38'1 2.9
2018-Jan-21 10:00N 44°14' E 037°37'2 3.1
2018-Jan-21 09:30N 44°12' E 037°37'2 3.0
2018-Jan-21 08:58N 44°11' E 037°36'2 2.7
2018-Jan-21 08:16N 44°09' E 037°37'4 2.5
2018-Jan-21 06:41N 44°06' E 037°40'0 2.5
2018-Jan-21 06:30N 44°06' E 037°41'2 2.2
2018-Jan-21 05:44N 44°07' E 037°40'312.4
2018-Jan-21 05:30N 44°09' E 037°37'3 1.3
2018-Jan-21 03:31N 44°11' E 037°35'0 1.9
2018-Jan-21 03:28N 44°11' E 037°35'1 1.6
2018-Jan-21 02:57N 44°10' E 037°36'3 1.4
2018-Jan-21 00:41N 44°08' E 037°39'12 4.9
2018-Jan-20 22:18N 44°16' E 037°51'311.9
2018-Jan-20 22:00N 44°19' E 037°51'2 3.1
2018-Jan-20 21:30N 44°21' E 037°51'1 2.0
2018-Jan-20 21:00N 44°20' E 037°51'1 2.0
2018-Jan-20 20:30N 44°19' E 037°50'1 2.2
2018-Jan-20 19:58N 44°18' E 037°49'1 2.2
2018-Jan-20 19:29N 44°17' E 037°49'1 2.3
2018-Jan-20 19:00N 44°16' E 037°48'1 2.4
2018-Jan-20 18:30N 44°15' E 037°47'1 2.3
2018-Jan-20 18:00N 44°14' E 037°46'1 2.4
2018-Jan-20 17:26N 44°13' E 037°46'1 2.5
2018-Jan-20 16:59N 44°11' E 037°45'1 2.3
2018-Jan-20 16:28N 44°10' E 037°45'3 2.2
2018-Jan-20 15:11N 44°12' E 037°41'512.6
2018-Jan-20 14:47N 44°16' E 037°38'311.5
2018-Jan-20 14:30N 44°19' E 037°36'612.4
2018-Jan-20 14:01N 44°23' E 037°29'3 5.2
2018-Jan-20 13:30N 44°25' E 037°26'1 2.5
2018-Jan-20 13:00N 44°24' E 037°27'1 2.4
2018-Jan-20 12:30N 44°23' E 037°28'1 2.2
2018-Jan-20 12:00N 44°22' E 037°29'1 2.0
2018-Jan-20 11:30N 44°21' E 037°30'1 2.0
2018-Jan-20 11:00N 44°20' E 037°30'1 1.9
2018-Jan-20 10:30N 44°19' E 037°30'1 1.8
2018-Jan-20 10:00N 44°18' E 037°31'1 1.8
2018-Jan-20 09:30N 44°17' E 037°31'1 1.9
2018-Jan-20 09:01N 44°16' E 037°31'1 1.9
2018-Jan-20 08:26N 44°15' E 037°31'1 2.0
2018-Jan-20 07:56N 44°14' E 037°31'1 2.1
2018-Jan-20 07:15N 44°13' E 037°31'1 2.2
2018-Jan-20 06:59N 44°12' E 037°31'10 1.0
2018-Jan-19 20:49N 44°12' E 037°45'1 1.1
2018-Jan-19 20:14N 44°12' E 037°45'0 0.9
2018-Jan-19 19:54N 44°12' E 037°44'0 0.9
2018-Jan-19 19:23N 44°12' E 037°43'1 1.0
2018-Jan-19 18:53N 44°13' E 037°43'1 1.4
2018-Jan-19 18:31N 44°13' E 037°42'1 1.3
2018-Jan-19 17:56N 44°13' E 037°41'1 1.5
2018-Jan-19 17:14N 44°14' E 037°40'1 1.2
2018-Jan-19 16:13N 44°14' E 037°39'1 2.9
2018-Jan-19 15:54N 44°15' E 037°40'1 2.5
2018-Jan-19 15:29N 44°15' E 037°41'2 2.7
2018-Jan-19 14:44N 44°15' E 037°44'0 1.1
2018-Jan-19 14:28N 44°15' E 037°44'1 1.1
2018-Jan-19 14:01N 44°14' E 037°43'1 1.2
2018-Jan-19 13:16N 44°14' E 037°42'0 1.1
2018-Jan-19 12:48N 44°15' E 037°42'1 3.1
2018-Jan-19 12:30N 44°15' E 037°42'3 6.9
2018-Jan-19 12:00N 44°18' E 037°46'510.0
2018-Jan-19 11:30N 44°22' E 037°50'2 3.6
2018-Jan-19 11:00N 44°23' E 037°52'1 1.4
2018-Jan-19 10:30N 44°23' E 037°51'1 1.3
2018-Jan-19 10:00N 44°23' E 037°50'0 0.2
2018-Jan-19 09:30N 44°23' E 037°50'2 4.2
2018-Jan-19 09:01N 44°22' E 037°47'4 8.0
2018-Jan-19 08:30N 44°22' E 037°42'612.9
2018-Jan-19 08:00N 44°23' E 037°33'611.9
2018-Jan-19 07:30N 44°23' E 037°24'  
Track history (hours):
 
Tides and Currents Weather Stations Pressure Air Temp Water Temp Dewpoint Dewpoint Depression Visibility Wind Speed Wind Dir Waves Ship Positions

Pink Coral

Last reported at 2018-Jan-22 18:38 UTC. Time now 2018-Jan-24 11:57 UTC.
Position N 44°04' E 037°08'.

Length 183 m; draft 8.6 m.

Type: Tanker. MMSI: 249344000.

Date/timePositionNaut miles runAvg speedWind from/ knotsBaromVisibWave heightAir tempDewpointWater temp
2018-Jan-22 18:38N 44°04' E 037°08'0 1.5
2018-Jan-22 18:31N 44°04' E 037°08'1 1.5
2018-Jan-22 18:00N 44°04' E 037°09'1 1.4
2018-Jan-22 17:30N 44°03' E 037°10'1 1.4
2018-Jan-22 17:00N 44°03' E 037°11'1 1.3
2018-Jan-22 16:17N 44°02' E 037°12'0 1.3
2018-Jan-22 15:56N 44°02' E 037°13'1 1.3
2018-Jan-22 15:31N 44°02' E 037°13'1 1.4
2018-Jan-22 14:36N 44°01' E 037°15'0 1.4
2018-Jan-22 14:30N 44°01' E 037°15'1 1.4
2018-Jan-22 14:01N 44°01' E 037°16'1 1.4
2018-Jan-22 13:30N 44°01' E 037°17'4 1.3
2018-Jan-22 10:41N 43°60' E 037°22'0 1.3
2018-Jan-22 10:31N 43°60' E 037°22'1 1.4
2018-Jan-22 10:00N 43°60' E 037°23'1 1.4
2018-Jan-22 09:30N 43°60' E 037°24'16 0.7
2018-Jan-21 11:49N 44°13' E 037°36'412.0
2018-Jan-21 11:30N 44°16' E 037°39'0 0.5
2018-Jan-21 11:00N 44°16' E 037°40'1 2.4
2018-Jan-21 10:30N 44°15' E 037°38'1 2.9
2018-Jan-21 10:00N 44°14' E 037°37'2 3.1
2018-Jan-21 09:30N 44°12' E 037°37'2 3.0
2018-Jan-21 08:58N 44°11' E 037°36'2 2.7
2018-Jan-21 08:16N 44°09' E 037°37'4 2.5
2018-Jan-21 06:41N 44°06' E 037°40'0 2.5
2018-Jan-21 06:30N 44°06' E 037°41'2 2.2
2018-Jan-21 05:44N 44°07' E 037°40'312.4
2018-Jan-21 05:30N 44°09' E 037°37'3 1.3
2018-Jan-21 03:31N 44°11' E 037°35'0 1.9
2018-Jan-21 03:28N 44°11' E 037°35'1 1.6
2018-Jan-21 02:57N 44°10' E 037°36'3 1.4
2018-Jan-21 00:41N 44°08' E 037°39'12 4.9
2018-Jan-20 22:18N 44°16' E 037°51'311.9
2018-Jan-20 22:00N 44°19' E 037°51'2 3.1
2018-Jan-20 21:30N 44°21' E 037°51'1 2.0
2018-Jan-20 21:00N 44°20' E 037°51'1 2.0
2018-Jan-20 20:30N 44°19' E 037°50'1 2.2
2018-Jan-20 19:58N 44°18' E 037°49'1 2.2
2018-Jan-20 19:29N 44°17' E 037°49'1 2.3
2018-Jan-20 19:00N 44°16' E 037°48'1 2.4
2018-Jan-20 18:30N 44°15' E 037°47'1 2.3
2018-Jan-20 18:00N 44°14' E 037°46'1 2.4
2018-Jan-20 17:26N 44°13' E 037°46'1 2.5
2018-Jan-20 16:59N 44°11' E 037°45'1 2.3
2018-Jan-20 16:28N 44°10' E 037°45'3 2.2
2018-Jan-20 15:11N 44°12' E 037°41'512.6
2018-Jan-20 14:47N 44°16' E 037°38'311.5
2018-Jan-20 14:30N 44°19' E 037°36'612.4
2018-Jan-20 14:01N 44°23' E 037°29'3 5.2
2018-Jan-20 13:30N 44°25' E 037°26'1 2.5
2018-Jan-20 13:00N 44°24' E 037°27'1 2.4
2018-Jan-20 12:30N 44°23' E 037°28'1 2.2
2018-Jan-20 12:00N 44°22' E 037°29'1 2.0
2018-Jan-20 11:30N 44°21' E 037°30'1 2.0
2018-Jan-20 11:00N 44°20' E 037°30'1 1.9
2018-Jan-20 10:30N 44°19' E 037°30'1 1.8
2018-Jan-20 10:00N 44°18' E 037°31'1 1.8
2018-Jan-20 09:30N 44°17' E 037°31'1 1.9
2018-Jan-20 09:01N 44°16' E 037°31'1 1.9
2018-Jan-20 08:26N 44°15' E 037°31'1 2.0
2018-Jan-20 07:56N 44°14' E 037°31'1 2.1
2018-Jan-20 07:15N 44°13' E 037°31'1 2.2
2018-Jan-20 06:59N 44°12' E 037°31'10 1.0
2018-Jan-19 20:49N 44°12' E 037°45'1 1.1
2018-Jan-19 20:14N 44°12' E 037°45'0 0.9
2018-Jan-19 19:54N 44°12' E 037°44'0 0.9
2018-Jan-19 19:23N 44°12' E 037°43'1 1.0
2018-Jan-19 18:53N 44°13' E 037°43'1 1.4
2018-Jan-19 18:31N 44°13' E 037°42'1 1.3
2018-Jan-19 17:56N 44°13' E 037°41'1 1.5
2018-Jan-19 17:14N 44°14' E 037°40'1 1.2
2018-Jan-19 16:13N 44°14' E 037°39'1 2.9
2018-Jan-19 15:54N 44°15' E 037°40'1 2.5
2018-Jan-19 15:29N 44°15' E 037°41'2 2.7
2018-Jan-19 14:44N 44°15' E 037°44'0 1.1
2018-Jan-19 14:28N 44°15' E 037°44'1 1.1
2018-Jan-19 14:01N 44°14' E 037°43'1 1.2
2018-Jan-19 13:16N 44°14' E 037°42'0 1.1
2018-Jan-19 12:48N 44°15' E 037°42'1 3.1
2018-Jan-19 12:30N 44°15' E 037°42'3 6.9
2018-Jan-19 12:00N 44°18' E 037°46'510.0
2018-Jan-19 11:30N 44°22' E 037°50'2 3.6
2018-Jan-19 11:00N 44°23' E 037°52'1 1.4
2018-Jan-19 10:30N 44°23' E 037°51'1 1.3
2018-Jan-19 10:00N 44°23' E 037°50'0 0.2
2018-Jan-19 09:30N 44°23' E 037°50'2 4.2
2018-Jan-19 09:01N 44°22' E 037°47'4 8.0
2018-Jan-19 08:30N 44°22' E 037°42'612.9
2018-Jan-19 08:00N 44°23' E 037°33'611.9
2018-Jan-19 07:30N 44°23' E 037°24'  

Dump ship's entire track history